Cascabel, Arizona
Current Conditions -  °F | °C
As of 8:58 AM on Saturday 22 Nov 2014 (Local Time) from KDMA Reporting Station
Clear Clear  
Wind Chill: 50°   Ceiling: Unl
Heat Index: 50°   Visibility: 10mi
Dew Point: 33°   Wind: 7mph
Humidity: 51%   Direction: 130°SE
Pressure: 30.12"   Gusts: NA
Location:  32.1865°N, 110.265°W
Report Text: KDMA 221558Z AUTO 13006KT 10SM CLR 10/00 A3012 RMK AO2 SLP186 T01010003 $
Loading
Personal Weather Stations






























Interactive Weather Map New forecast layout! Learn more

10-Day Weather Forecast

Advertisements
Track Severe Weather on mobile